sensor_id;sensor_type;location;lat;lon;timestamp;pressure;altitude;pressure_sealevel;temperature;humidity
15308;BME280;7755;52.208;6.964;2022-08-18T00:03:03;100809.88;;;21.14;100.00
15308;BME280;7755;52.208;6.964;2022-08-18T00:07:08;100819.97;;;21.19;100.00
15308;BME280;7755;52.208;6.964;2022-08-18T00:11:10;100821.94;;;21.18;100.00
15308;BME280;7755;52.208;6.964;2022-08-18T00:15:14;100821.22;;;21.13;100.00
15308;BME280;7755;52.208;6.964;2022-08-18T00:19:16;100821.63;;;21.06;100.00
15308;BME280;7755;52.208;6.964;2022-08-18T00:23:18;100819.50;;;21.03;100.00
15308;BME280;7755;52.208;6.964;2022-08-18T00:27:22;100826.66;;;21.04;100.00
15308;BME280;7755;52.208;6.964;2022-08-18T00:31:26;100821.34;;;21.08;100.00
15308;BME280;7755;52.208;6.964;2022-08-18T00:35:31;100830.63;;;21.12;100.00
15308;BME280;7755;52.208;6.964;2022-08-18T00:39:33;100825.44;;;21.10;100.00
15308;BME280;7755;52.208;6.964;2022-08-18T00:43:39;100823.78;;;21.09;100.00
15308;BME280;7755;52.208;6.964;2022-08-18T00:47:43;100818.44;;;21.13;100.00
15308;BME280;7755;52.208;6.964;2022-08-18T00:51:48;100829.72;;;21.16;100.00
15308;BME280;7755;52.208;6.964;2022-08-18T00:55:51;100824.19;;;21.16;100.00
15308;BME280;7755;52.208;6.964;2022-08-18T00:59:58;100840.97;;;21.20;100.00
15308;BME280;7755;52.208;6.964;2022-08-18T01:04:11;100836.97;;;21.26;100.00
15308;BME280;7755;52.208;6.964;2022-08-18T01:08:15;100845.19;;;21.31;100.00
15308;BME280;7755;52.208;6.964;2022-08-18T01:12:17;100839.47;;;21.27;100.00
15308;BME280;7755;52.208;6.964;2022-08-18T01:16:20;100831.69;;;21.30;100.00
15308;BME280;7755;52.208;6.964;2022-08-18T01:20:45;100828.28;;;21.19;100.00
15308;BME280;7755;52.208;6.964;2022-08-18T01:25:08;100829.22;;;21.14;100.00
15308;BME280;7755;52.208;6.964;2022-08-18T01:29:27;100832.50;;;21.16;100.00
15308;BME280;7755;52.208;6.964;2022-08-18T01:33:32;100816.81;;;21.12;100.00
15308;BME280;7755;52.208;6.964;2022-08-18T01:37:36;100821.22;;;21.13;100.00
15308;BME280;7755;52.208;6.964;2022-08-18T01:41:39;100814.47;;;21.05;100.00
15308;BME280;7755;52.208;6.964;2022-08-18T01:45:41;100819.59;;;20.98;100.00
15308;BME280;7755;52.208;6.964;2022-08-18T01:49:43;100818.47;;;20.99;100.00
15308;BME280;7755;52.208;6.964;2022-08-18T01:53:45;100814.16;;;20.93;100.00
15308;BME280;7755;52.208;6.964;2022-08-18T01:57:49;100809.06;;;21.00;100.00
15308;BME280;7755;52.208;6.964;2022-08-18T02:01:51;100813.66;;;21.05;100.00
15308;BME280;7755;52.208;6.964;2022-08-18T02:05:58;100810.06;;;21.04;100.00
15308;BME280;7755;52.208;6.964;2022-08-18T02:10:00;100823.78;;;21.09;100.00
15308;BME280;7755;52.208;6.964;2022-08-18T02:14:04;100815.50;;;21.09;100.00
15308;BME280;7755;52.208;6.964;2022-08-18T02:18:12;100816.09;;;21.06;100.00
15308;BME280;7755;52.208;6.964;2022-08-18T02:22:16;100826.34;;;21.06;100.00
15308;BME280;7755;52.208;6.964;2022-08-18T02:26:18;100824.53;;;21.01;100.00
15308;BME280;7755;52.208;6.964;2022-08-18T02:30:22;100817.84;;;21.02;100.00
15308;BME280;7755;52.208;6.964;2022-08-18T02:34:24;100813.47;;;21.01;100.00
15308;BME280;7755;52.208;6.964;2022-08-18T02:38:26;100810.38;;;21.03;100.00
15308;BME280;7755;52.208;6.964;2022-08-18T02:42:27;100810.16;;;20.99;100.00
15308;BME280;7755;52.208;6.964;2022-08-18T02:46:33;100813.25;;;20.97;100.00
15308;BME280;7755;52.208;6.964;2022-08-18T02:50:35;100808.94;;;20.91;100.00
15308;BME280;7755;52.208;6.964;2022-08-18T02:54:45;100821.63;;;20.92;100.00
15308;BME280;7755;52.208;6.964;2022-08-18T02:58:49;100821.84;;;20.96;100.00
15308;BME280;7755;52.208;6.964;2022-08-18T03:02:54;100823.28;;;20.93;100.00
15308;BME280;7755;52.208;6.964;2022-08-18T03:06:58;100820.31;;;20.90;100.00
15308;BME280;7755;52.208;6.964;2022-08-18T03:11:00;100824.22;;;20.89;100.00
15308;BME280;7755;52.208;6.964;2022-08-18T03:15:02;100829.72;;;20.89;100.00
15308;BME280;7755;52.208;6.964;2022-08-18T03:19:06;100836.28;;;20.93;100.00
15308;BME280;7755;52.208;6.964;2022-08-18T03:23:08;100840.16;;;20.92;100.00
15308;BME280;7755;52.208;6.964;2022-08-18T03:27:10;100844.28;;;20.94;100.00
15308;BME280;7755;52.208;6.964;2022-08-18T03:31:13;100836.16;;;20.98;100.00
15308;BME280;7755;52.208;6.964;2022-08-18T03:35:16;100837.00;;;20.98;100.00
15308;BME280;7755;52.208;6.964;2022-08-18T03:39:19;100841.69;;;20.98;100.00
15308;BME280;7755;52.208;6.964;2022-08-18T03:43:22;100844.28;;;20.94;100.00
15308;BME280;7755;52.208;6.964;2022-08-18T03:47:24;100838.75;;;20.94;100.00
15308;BME280;7755;52.208;6.964;2022-08-18T03:51:29;100835.25;;;20.89;100.00
15308;BME280;7755;52.208;6.964;2022-08-18T03:55:32;100842.22;;;20.86;100.00
15308;BME280;7755;52.208;6.964;2022-08-18T03:59:34;100835.34;;;20.84;100.00
15308;BME280;7755;52.208;6.964;2022-08-18T04:03:35;100840.38;;;20.82;100.00
15308;BME280;7755;52.208;6.964;2022-08-18T04:07:39;100845.25;;;20.71;100.00
15308;BME280;7755;52.208;6.964;2022-08-18T04:11:43;100842.31;;;20.67;100.00
15308;BME280;7755;52.208;6.964;2022-08-18T04:15:45;100840.75;;;20.61;100.00
15308;BME280;7755;52.208;6.964;2022-08-18T04:19:47;100839.72;;;20.57;100.00
15308;BME280;7755;52.208;6.964;2022-08-18T04:23:50;100841.25;;;20.63;100.00
15308;BME280;7755;52.208;6.964;2022-08-18T04:27:53;100844.84;;;20.64;100.00
15308;BME280;7755;52.208;6.964;2022-08-18T04:31:59;100841.56;;;20.62;100.00
15308;BME280;7755;52.208;6.964;2022-08-18T04:36:07;100846.28;;;20.61;100.00
15308;BME280;7755;52.208;6.964;2022-08-18T04:40:11;100843.84;;;20.60;100.00
15308;BME280;7755;52.208;6.964;2022-08-18T04:44:14;100854.25;;;20.63;100.00
15308;BME280;7755;52.208;6.964;2022-08-18T04:48:17;100847.53;;;20.69;100.00
15308;BME280;7755;52.208;6.964;2022-08-18T04:52:19;100844.75;;;20.69;100.00
15308;BME280;7755;52.208;6.964;2022-08-18T04:56:40;100853.06;;;20.69;100.00
15308;BME280;7755;52.208;6.964;2022-08-18T05:00:42;100859.69;;;20.68;100.00
15308;BME280;7755;52.208;6.964;2022-08-18T05:04:45;100870.94;;;20.71;100.00
15308;BME280;7755;52.208;6.964;2022-08-18T05:08:47;100873.44;;;20.73;100.00
15308;BME280;7755;52.208;6.964;2022-08-18T05:12:50;100873.44;;;20.73;100.00
15308;BME280;7755;52.208;6.964;2022-08-18T05:16:52;100872.81;;;20.76;100.00
15308;BME280;7755;52.208;6.964;2022-08-18T05:20:55;100883.88;;;20.76;100.00
15308;BME280;7755;52.208;6.964;2022-08-18T05:24:57;100882.41;;;20.79;100.00
15308;BME280;7755;52.208;6.964;2022-08-18T05:29:01;100886.31;;;20.78;100.00
15308;BME280;7755;52.208;6.964;2022-08-18T05:33:02;100886.22;;;20.83;100.00
15308;BME280;7755;52.208;6.964;2022-08-18T05:37:15;100891.13;;;20.86;100.00
15308;BME280;7755;52.208;6.964;2022-08-18T05:41:26;100889.81;;;20.83;100.00
15308;BME280;7755;52.208;6.964;2022-08-18T05:45:30;100878.56;;;20.80;100.00
15308;BME280;7755;52.208;6.964;2022-08-18T05:49:35;100881.00;;;20.81;100.00
15308;BME280;7755;52.208;6.964;2022-08-18T05:53:37;100877.44;;;20.81;100.00
15308;BME280;7755;52.208;6.964;2022-08-18T05:58:01;100887.28;;;20.87;100.00
15308;BME280;7755;52.208;6.964;2022-08-18T06:02:13;100878.34;;;20.90;100.00
15308;BME280;7755;52.208;6.964;2022-08-18T06:06:19;100872.50;;;20.91;100.00
15308;BME280;7755;52.208;6.964;2022-08-18T06:10:22;100872.44;;;20.96;100.00
15308;BME280;7755;52.208;6.964;2022-08-18T06:14:24;100887.56;;;20.99;100.00
15308;BME280;7755;52.208;6.964;2022-08-18T06:18:46;100885.63;;;20.99;100.00
15308;BME280;7755;52.208;6.964;2022-08-18T06:22:58;100887.78;;;20.89;100.00
15308;BME280;7755;52.208;6.964;2022-08-18T06:27:08;100884.59;;;20.82;100.00
15308;BME280;7755;52.208;6.964;2022-08-18T06:31:16;100897.38;;;20.78;100.00
15308;BME280;7755;52.208;6.964;2022-08-18T06:35:28;100898.09;;;20.83;100.00
15308;BME280;7755;52.208;6.964;2022-08-18T06:39:35;100903.38;;;20.66;100.00
15308;BME280;7755;52.208;6.964;2022-08-18T06:43:53;100909.75;;;20.66;100.00
15308;BME280;7755;52.208;6.964;2022-08-18T06:48:03;100929.69;;;20.63;100.00
15308;BME280;7755;52.208;6.964;2022-08-18T06:52:20;100927.72;;;20.64;100.00
15308;BME280;7755;52.208;6.964;2022-08-18T06:56:26;100919.13;;;20.65;100.00
15308;BME280;7755;52.208;6.964;2022-08-18T07:00:30;100925.72;;;20.69;100.00
15308;BME280;7755;52.208;6.964;2022-08-18T07:04:42;100926.47;;;20.89;100.00
15308;BME280;7755;52.208;6.964;2022-08-18T07:08:46;100932.75;;;21.08;100.00
15308;BME280;7755;52.208;6.964;2022-08-18T07:12:48;100939.63;;;21.24;100.00
15308;BME280;7755;52.208;6.964;2022-08-18T07:17:05;100941.09;;;21.49;100.00
15308;BME280;7755;52.208;6.964;2022-08-18T07:21:07;100949.06;;;21.65;100.00
15308;BME280;7755;52.208;6.964;2022-08-18T07:25:19;100948.88;;;21.75;100.00
15308;BME280;7755;52.208;6.964;2022-08-18T07:29:23;100954.81;;;21.82;100.00
15308;BME280;7755;52.208;6.964;2022-08-18T07:33:25;100952.22;;;21.86;100.00
15308;BME280;7755;52.208;6.964;2022-08-18T07:37:30;100954.25;;;21.94;100.00
15308;BME280;7755;52.208;6.964;2022-08-18T07:41:39;100959.19;;;21.97;100.00
15308;BME280;7755;52.208;6.964;2022-08-18T07:45:44;100951.78;;;21.92;100.00
15308;BME280;7755;52.208;6.964;2022-08-18T07:49:46;100952.94;;;21.91;100.00
15308;BME280;7755;52.208;6.964;2022-08-18T07:53:52;100956.63;;;21.87;100.00
15308;BME280;7755;52.208;6.964;2022-08-18T07:58:05;100957.25;;;21.84;100.00
15308;BME280;7755;52.208;6.964;2022-08-18T08:02:24;100959.09;;;21.88;100.00
15308;BME280;7755;52.208;6.964;2022-08-18T08:06:33;100962.69;;;21.89;100.00
15308;BME280;7755;52.208;6.964;2022-08-18T08:10:42;100965.03;;;21.95;100.00
15308;BME280;7755;52.208;6.964;2022-08-18T08:14:57;100962.28;;;21.95;100.00
15308;BME280;7755;52.208;6.964;2022-08-18T08:19:14;100962.13;;;22.00;100.00
15308;BME280;7755;52.208;6.964;2022-08-18T08:23:28;100955.28;;;21.98;100.00
15308;BME280;7755;52.208;6.964;2022-08-18T08:27:45;100957.31;;;22.06;100.00
15308;BME280;7755;52.208;6.964;2022-08-18T08:31:55;100962.94;;;22.15;100.00
15308;BME280;7755;52.208;6.964;2022-08-18T08:36:04;100968.31;;;22.11;100.00
15308;BME280;7755;52.208;6.964;2022-08-18T08:40:19;100974.34;;;22.13;100.00
15308;BME280;7755;52.208;6.964;2022-08-18T08:44:28;100971.06;;;22.11;100.00
15308;BME280;7755;52.208;6.964;2022-08-18T08:48:39;100971.56;;;22.13;100.00
15308;BME280;7755;52.208;6.964;2022-08-18T08:52:46;100974.56;;;22.17;100.00
15308;BME280;7755;52.208;6.964;2022-08-18T08:56:53;100980.47;;;22.24;100.00
15308;BME280;7755;52.208;6.964;2022-08-18T09:00:56;100978.59;;;22.33;100.00
15308;BME280;7755;52.208;6.964;2022-08-18T09:05:05;100973.22;;;22.50;100.00
15308;BME280;7755;52.208;6.964;2022-08-18T09:09:21;100964.25;;;22.76;99.52
15308;BME280;7755;52.208;6.964;2022-08-18T09:18:19;100965.28;;;23.90;93.74
15308;BME280;7755;52.208;6.964;2022-08-18T09:22:37;100964.50;;;24.24;91.95
15308;BME280;7755;52.208;6.964;2022-08-18T09:26:49;100964.22;;;24.35;90.96
15308;BME280;7755;52.208;6.964;2022-08-18T09:31:13;100971.56;;;24.57;88.31
15308;BME280;7755;52.208;6.964;2022-08-18T09:35:27;100969.13;;;24.55;87.13
15308;BME280;7755;52.208;6.964;2022-08-18T09:39:36;100975.66;;;24.59;85.64
15308;BME280;7755;52.208;6.964;2022-08-18T09:44:00;100976.63;;;24.63;85.86
15308;BME280;7755;52.208;6.964;2022-08-18T09:48:31;100976.31;;;24.56;87.01
15308;BME280;7755;52.208;6.964;2022-08-18T09:52:55;100982.03;;;24.51;87.24
15308;BME280;7755;52.208;6.964;2022-08-18T09:57:19;100978.59;;;24.37;86.57
15308;BME280;7755;52.208;6.964;2022-08-18T10:01:34;100976.94;;;24.18;86.35
15308;BME280;7755;52.208;6.964;2022-08-18T10:05:38;100977.25;;;24.17;86.51
15308;BME280;7755;52.208;6.964;2022-08-18T10:09:46;100974.47;;;24.17;85.76
15308;BME280;7755;52.208;6.964;2022-08-18T10:14:09;100966.78;;;24.14;86.51
15308;BME280;7755;52.208;6.964;2022-08-18T10:18:29;100983.31;;;24.28;85.63
15308;BME280;7755;52.208;6.964;2022-08-18T10:22:39;100979.41;;;24.37;84.58
15308;BME280;7755;52.208;6.964;2022-08-18T10:31:30;100980.41;;;24.41;84.14
15308;BME280;7755;52.208;6.964;2022-08-18T10:40:00;100979.88;;;24.31;82.90
15308;BME280;7755;52.208;6.964;2022-08-18T10:44:04;100982.00;;;24.16;84.44
15308;BME280;7755;52.208;6.964;2022-08-18T10:48:10;100974.81;;;24.24;84.56
15308;BME280;7755;52.208;6.964;2022-08-18T10:52:38;100975.78;;;24.28;84.67
15308;BME280;7755;52.208;6.964;2022-08-18T10:56:48;100977.75;;;24.28;85.22
15308;BME280;7755;52.208;6.964;2022-08-18T11:01:02;100978.44;;;24.33;85.02
15308;BME280;7755;52.208;6.964;2022-08-18T11:05:11;100979.44;;;24.55;84.53
15308;BME280;7755;52.208;6.964;2022-08-18T11:09:22;100988.72;;;24.59;82.90
15308;BME280;7755;52.208;6.964;2022-08-18T11:13:34;100977.13;;;24.74;82.33
15308;BME280;7755;52.208;6.964;2022-08-18T11:17:46;100975.78;;;24.89;81.46
15308;BME280;7755;52.208;6.964;2022-08-18T11:21:53;100974.28;;;25.00;81.34
15308;BME280;7755;52.208;6.964;2022-08-18T11:26:12;100977.72;;;24.97;80.98
15308;BME280;7755;52.208;6.964;2022-08-18T11:30:14;100967.13;;;24.82;80.36
15308;BME280;7755;52.208;6.964;2022-08-18T11:34:21;100977.94;;;24.74;80.38
15308;BME280;7755;52.208;6.964;2022-08-18T11:38:27;100979.59;;;24.67;81.06
15308;BME280;7755;52.208;6.964;2022-08-18T11:42:33;100977.94;;;24.66;81.77
15308;BME280;7755;52.208;6.964;2022-08-18T11:46:37;100968.91;;;24.77;80.84
15308;BME280;7755;52.208;6.964;2022-08-18T11:50:45;100954.38;;;24.81;80.24
15308;BME280;7755;52.208;6.964;2022-08-18T11:54:49;100959.22;;;24.92;80.54
15308;BME280;7755;52.208;6.964;2022-08-18T11:58:53;100956.44;;;25.10;79.55
15308;BME280;7755;52.208;6.964;2022-08-18T12:03:00;100953.25;;;25.28;77.87
15308;BME280;7755;52.208;6.964;2022-08-18T12:07:04;100940.94;;;25.38;77.16
15308;BME280;7755;52.208;6.964;2022-08-18T12:11:16;100942.03;;;25.46;76.19
15308;BME280;7755;52.208;6.964;2022-08-18T12:15:26;100937.53;;;25.62;75.82
15308;BME280;7755;52.208;6.964;2022-08-18T12:19:28;100929.13;;;25.71;75.32
15308;BME280;7755;52.208;6.964;2022-08-18T12:23:31;100924.03;;;25.81;74.86
15308;BME280;7755;52.208;6.964;2022-08-18T12:27:35;100927.75;;;25.85;73.35
15308;BME280;7755;52.208;6.964;2022-08-18T12:31:37;100928.84;;;25.93;72.64
15308;BME280;7755;52.208;6.964;2022-08-18T12:35:39;100934.84;;;26.04;72.36
15308;BME280;7755;52.208;6.964;2022-08-18T12:39:41;100929.34;;;26.16;71.62
15308;BME280;7755;52.208;6.964;2022-08-18T12:43:44;100923.94;;;26.32;70.83
15308;BME280;7755;52.208;6.964;2022-08-18T12:47:47;100918.50;;;26.35;69.39
15308;BME280;7755;52.208;6.964;2022-08-18T12:51:49;100903.41;;;26.36;69.14
15308;BME280;7755;52.208;6.964;2022-08-18T12:55:54;100904.38;;;26.40;69.40
15308;BME280;7755;52.208;6.964;2022-08-18T12:59:57;100908.84;;;26.33;69.00
15308;BME280;7755;52.208;6.964;2022-08-18T13:03:59;100916.94;;;26.26;70.37
15308;BME280;7755;52.208;6.964;2022-08-18T13:08:02;100910.97;;;26.36;70.63
15308;BME280;7755;52.208;6.964;2022-08-18T13:12:05;100921.25;;;26.44;69.63
15308;BME280;7755;52.208;6.964;2022-08-18T13:16:09;100929.72;;;26.48;69.33
15308;BME280;7755;52.208;6.964;2022-08-18T13:20:13;100931.38;;;26.49;68.18
15308;BME280;7755;52.208;6.964;2022-08-18T13:24:16;100934.44;;;26.56;68.63
15308;BME280;7755;52.208;6.964;2022-08-18T13:28:17;100938.69;;;26.53;68.78
15308;BME280;7755;52.208;6.964;2022-08-18T13:32:21;100941.84;;;26.52;68.51
15308;BME280;7755;52.208;6.964;2022-08-18T13:36:25;100936.81;;;26.45;68.52
15308;BME280;7755;52.208;6.964;2022-08-18T13:41:17;100949.47;;;26.43;68.55
15308;BME280;7755;52.208;6.964;2022-08-18T13:46:09;100963.50;;;26.25;70.35
15308;BME280;7755;52.208;6.964;2022-08-18T13:51:02;100961.75;;;26.42;71.72
15308;BME280;7755;52.208;6.964;2022-08-18T13:55:54;100948.13;;;26.49;72.75
15308;BME280;7755;52.208;6.964;2022-08-18T14:00:46;100949.25;;;26.48;72.32
